YMBZ weather

Mount Ebenezer Airport
Northern Territory, Australia

Public forecast

Using degrees Celsius for public forecast. Weather courtesy of forecast.io.

METAR (pilot weather report)

Closest report is Ayers Rock Connellan Airport, 90.0 nm (166.8 km) W. Retrieved 2019/03/25 13:00 UTC (28 minutes ago):

YAYE 251300Z AUTO 15012KT 9999 // NCD 26/12 Q1017

TAF (pilot weather forecast)

Closest forecast is Alice Springs Airport, 107.1 nm (198.4 km) NE. Retrieved 2019/03/25 12:00 UTC (1 hour ago):

TAF YBAS 251107Z 2512/2612 15014KT 9999 BKN020 FM260000 14018G28KT CAVOK